Cadzand, Netherlands

6:27 AM CEST on August 05, 2015 (GMT +0200)
Knokke Heist Oostkust | | Change Station
CLOSE
Current Station
Personal Weather Station
Location: Heist aan zee, West-Vlaanderen
Elevation: 5 ft
Nearby Weather Stations

Elev 5 ft 51.32 °N, 3.29 °E | Updated 32 seconds ago

Overcast
Overcast
56.7 °F
Feels Like 56.7 °F
N
0.0
Wind Variable Wind from SE
Gusts 0.0 mph

Today
High -- | Low -- °F
--% Chance of Precip.
Yesterday
High -- | Low -- °F
Precip. -- in
6:16 AM 9:27 PM
Waning Gibbous, 71% visible
Pressure 30.04 in
Visibility 6.2 miles
Clouds Overcast 13000 ft
Dew Point 51 °F
Humidity 80%
Rainfall 0.00 in
Snow Depth Not available.
UV 0.0 out of 12
Pollen Not available.
Air Quality Not available.
Flu Activity Not available.
METAR EHWO 050425Z AUTO 13001KT 9999 OVC130 13/09 Q1017 BLU

More Conditions Fewer Conditions

Pressure 30.04 in
Visibility 6.2 miles
Clouds Overcast 13000 ft
Dew Point 51 °F
Humidity 80%
Rainfall 0.00 in
Snow Depth Not available.
UV 0.0 out of 12
Pollen Not available.
Air Quality Not available.
Flu Activity Not available.
METAR EHWO 050425Z AUTO 13001KT 9999 OVC130 13/09 Q1017 BLU

More Conditions Fewer Conditions

10-Day Weather Forecast

×

Almanac

Astronomy

Aug. 05, 2015 Rise Set
Actual Time
Civil Twilight
Nautical Twilight
Astronomical Twilight
Moon
Length of Visible Light
Length of Day
Tomorrow will be .
, % of the Moon is Illuminated

Today's Extremes

Country Highs Country Lows

Community

WunderPhotos

Upload Photos

1,844,093 photos uploaded!

WunderBlogs® & News

Nearby

Air Quality

  Air Quality AQ Index Pollutant
Not available.

Snow Depth

Station Depth Elevation

Earthquake Activity

City Distance Mag. Time & Date
Minimum magnitude displayed is 2.5.

Coastal Water Temperatures

Place Temperature

Stations

Nearby Weather Stations

Station Location Temp. Windchill Dew Point Humidity Wind Precip. Elev Updated Type